Time;durP1;ratioP1;P1;durP2;ratioP2;P2;SDS_P1;SDS_P2;PMS_P1;PMS_P2;Temp;Humidity;BMP_temperature;BMP_pressure;BME280_temperature;BME280_humidity;BME280_pressure;Samples;Min_cycle;Max_cycle;Signal;HPM_P1;HPM_P2
2022/04/19 00:00:44;;;;;;;1.55;1.40;;;;;;;9.71;42.71;95067.34;4991183;28;20474;-61
2022/04/19 00:03:12;;;;;;;3.53;1.90;;;;;;;9.73;42.98;95070.53;4991166;28;20150;-63
2022/04/19 00:05:38;;;;;;;1.40;1.30;;;;;;;9.64;42.93;95059.81;4991178;28;20080;-63
2022/04/19 00:08:05;;;;;;;2.83;1.98;;;;;;;9.75;42.32;95075.53;4991487;28;20187;-61
2022/04/19 00:10:31;;;;;;;3.00;1.83;;;;;;;9.66;42.67;95056.06;4994662;28;20022;-61
2022/04/19 00:12:59;;;;;;;2.25;1.70;;;;;;;9.69;42.75;95055.47;4994965;28;20450;-63
2022/04/19 00:15:27;;;;;;;1.83;1.70;;;;;;;9.39;42.47;95004.59;4995075;28;20034;-64
2022/04/19 00:17:54;;;;;;;1.92;1.73;;;;;;;9.71;42.78;95045.31;4995021;28;20076;-64
2022/04/19 00:20:21;;;;;;;1.63;1.52;;;;;;;9.76;42.20;95058.50;4994714;28;20431;-63
2022/04/19 00:22:48;;;;;;;1.52;1.42;;;;;;;9.74;42.08;95050.84;4995097;28;20026;-63
2022/04/19 00:25:13;;;;;;;2.20;1.88;;;;;;;9.57;42.53;95016.16;4994790;28;20057;-63
2022/04/19 00:27:38;;;;;;;1.90;1.73;;;;;;;9.55;42.13;95010.38;4994623;28;20062;-63
2022/04/19 00:30:04;;;;;;;1.77;1.67;;;;;;;9.62;42.67;95018.69;4994616;28;20026;-62
2022/04/19 00:32:30;;;;;;;2.75;1.63;;;;;;;9.71;42.86;95040.00;4994569;28;20031;-63
2022/04/19 00:34:57;;;;;;;4.10;1.95;;;;;;;9.62;42.65;95027.47;4994257;28;20031;-64
2022/04/19 00:37:23;;;;;;;2.08;1.63;;;;;;;9.46;42.68;94997.00;4994702;28;20028;-62
2022/04/19 00:39:49;;;;;;;1.92;1.60;;;;;;;9.63;42.46;95023.72;4994548;28;20045;-62
2022/04/19 00:42:14;;;;;;;4.25;2.10;;;;;;;9.63;42.48;95017.63;5040336;23;20494;-61
2022/04/19 00:44:40;;;;;;;2.72;1.67;;;;;;;9.46;42.57;94993.56;5032080;28;20520;-60
2022/04/19 00:47:09;;;;;;;2.45;1.95;;;;;;;9.54;42.89;95004.28;5034083;28;20048;-60
2022/04/19 00:49:42;;;;;;;2.55;2.35;;;;;;;9.41;43.00;94985.72;5033825;28;20037;-60
2022/04/19 00:52:09;;;;;;;2.35;1.80;;;;;;;9.45;42.96;94990.13;5033339;28;20029;-60
2022/04/19 00:54:34;;;;;;;2.50;2.28;;;;;;;9.50;43.09;95007.81;5033462;28;20069;-61
2022/04/19 00:57:00;;;;;;;3.03;1.98;;;;;;;9.23;43.28;94969.66;5033716;28;20057;-61
2022/04/19 00:59:25;;;;;;;2.05;1.85;;;;;;;9.45;43.26;94994.66;5033642;28;20029;-60
2022/04/19 01:01:51;;;;;;;2.83;1.80;;;;;;;9.44;43.86;94993.88;5033049;28;20018;-60
2022/04/19 01:04:17;;;;;;;3.78;2.08;;;;;;;9.35;43.80;94979.75;5033236;28;20049;-59
2022/04/19 01:06:43;;;;;;;5.22;2.10;;;;;;;9.42;43.66;94989.94;5033237;28;20033;-60
2022/04/19 01:09:09;;;;;;;2.47;1.80;;;;;;;9.36;43.77;94970.69;5033356;28;20469;-61
2022/04/19 01:14:19;;;;;;;3.97;2.33;;;;;;;9.33;44.05;94966.78;5033074;28;20087;-60
2022/04/19 01:16:45;;;;;;;2.38;1.73;;;;;;;9.29;44.34;94976.41;5033432;28;20490;-60
2022/04/19 01:19:16;;;;;;;2.00;1.90;;;;;;;9.01;44.56;94959.00;5033171;28;20037;-60
2022/04/19 01:21:48;;;;;;;2.05;1.85;;;;;;;9.25;44.16;94958.72;5032013;28;20032;-61
2022/04/19 01:24:18;;;;;;;1.98;1.77;;;;;;;9.43;44.11;94971.06;5032780;28;20052;-61
2022/04/19 01:26:44;;;;;;;2.65;2.30;;;;;;;9.50;43.98;94970.66;5033137;28;20456;-61
2022/04/19 01:29:11;;;;;;;2.15;1.80;;;;;;;9.55;43.82;94960.69;5033025;28;20021;-61
2022/04/19 01:31:38;;;;;;;3.53;1.98;;;;;;;9.60;43.65;94962.44;5032671;28;20022;-61
2022/04/19 01:34:04;;;;;;;3.42;2.08;;;;;;;9.53;43.92;94946.94;5032709;28;20036;-60
2022/04/19 01:36:30;;;;;;;2.30;1.63;;;;;;;9.50;43.69;94936.13;5032948;28;20382;-60
2022/04/19 01:38:55;;;;;;;2.65;2.17;;;;;;;9.49;43.65;94931.91;5032993;28;20037;-61
2022/04/19 01:41:21;;;;;;;2.42;1.73;;;;;;;9.68;43.58;94967.06;5032450;28;20075;-61
2022/04/19 01:43:46;;;;;;;3.45;2.63;;;;;;;9.66;42.91;94961.25;5032417;28;20064;-61
2022/04/19 01:46:12;;;;;;;2.10;1.90;;;;;;;9.64;43.47;94969.50;5032784;28;20474;-61
2022/04/19 01:48:37;;;;;;;3.65;2.13;;;;;;;9.49;43.66;94942.53;5032808;28;20401;-61
2022/04/19 01:51:02;;;;;;;2.30;2.00;;;;;;;9.63;43.51;94959.19;5032295;28;20025;-60
2022/04/19 01:53:29;;;;;;;2.20;2.00;;;;;;;9.57;43.75;94955.88;5032386;28;20109;-60
2022/04/19 01:55:54;;;;;;;2.38;2.03;;;;;;;9.52;43.53;94941.91;5032519;28;20030;-60
2022/04/19 01:58:20;;;;;;;8.15;2.50;;;;;;;9.41;43.89;94929.97;5032341;28;20030;-62
2022/04/19 02:00:45;;;;;;;5.93;2.60;;;;;;;9.51;43.97;94949.09;5032175;28;20462;-60
2022/04/19 02:03:10;;;;;;;3.90;2.42;;;;;;;9.43;43.85;94933.13;5032125;28;20482;-59
2022/04/19 02:05:36;;;;;;;2.40;1.90;;;;;;;9.33;44.03;94913.69;5032412;28;20075;-60
2022/04/19 02:08:01;;;;;;;2.25;2.00;;;;;;;9.48;44.10;94933.78;5032390;28;20025;-60
2022/04/19 02:10:27;;;;;;;3.38;2.15;;;;;;;9.54;44.03;94943.19;5030483;28;20025;-60
2022/04/19 02:12:52;;;;;;;2.58;1.90;;;;;;;9.49;44.46;94942.53;5031836;28;20044;-61
2022/04/19 02:15:18;;;;;;;2.30;2.10;;;;;;;9.54;44.01;94945.06;5032274;28;20044;-60
2022/04/19 02:17:45;;;;;;;2.53;1.90;;;;;;;9.40;44.37;94923.88;5032127;28;20025;-60
2022/04/19 02:20:11;;;;;;;2.10;1.88;;;;;;;9.51;44.44;94940.34;5030187;28;20351;-59
2022/04/19 02:22:39;;;;;;;1.90;1.70;;;;;;;9.45;44.74;94931.72;5031686;28;20076;-60
2022/04/19 02:25:05;;;;;;;2.08;1.75;;;;;;;9.41;44.52;94920.13;5032191;28;20025;-61
2022/04/19 02:27:33;;;;;;;6.32;2.60;;;;;;;9.35;44.42;94911.50;5031926;28;20033;-61
2022/04/19 02:29:59;;;;;;;2.17;1.92;;;;;;;9.33;44.76;94899.63;5031496;28;20026;-61
2022/04/19 02:32:25;;;;;;;2.83;1.90;;;;;;;9.54;44.64;94932.56;5030964;28;20076;-60
2022/04/19 02:34:51;;;;;;;2.20;2.00;;;;;;;9.49;44.56;94922.06;5031774;28;20397;-61
2022/04/19 02:37:17;;;;;;;2.53;1.95;;;;;;;9.48;44.38;94931.13;5031847;28;20038;-61
2022/04/19 02:39:42;;;;;;;2.63;2.10;;;;;;;9.33;44.53;94897.75;5031726;28;20536;-61
2022/04/19 02:42:08;;;;;;;2.28;1.60;;;;;;;9.28;44.60;94879.31;5030971;28;20060;-61
2022/04/19 02:44:34;;;;;;;3.10;1.98;;;;;;;9.55;44.14;94912.13;5030334;28;20028;-61
2022/04/19 02:47:02;;;;;;;6.53;2.50;;;;;;;9.62;44.06;94920.44;5031609;28;20466;-60
2022/04/19 02:49:28;;;;;;;2.15;1.90;;;;;;;9.79;44.28;94933.06;5031514;28;20065;-60
2022/04/19 02:51:55;;;;;;;2.65;1.63;;;;;;;9.87;43.75;94938.41;5030983;28;20061;-61
2022/04/19 02:54:20;;;;;;;1.95;1.73;;;;;;;9.96;44.04;94935.81;5031500;28;20484;-60
2022/04/19 02:56:45;;;;;;;2.38;2.03;;;;;;;9.84;43.65;94911.69;5031454;28;20022;-60
2022/04/19 02:59:11;;;;;;;2.03;1.83;;;;;;;9.92;43.91;94902.97;5031049;28;20029;-60
2022/04/19 03:01:36;;;;;;;3.53;1.88;;;;;;;10.00;43.88;94896.91;5029705;28;20041;-60
2022/04/19 03:04:02;;;;;;;2.58;1.92;;;;;;;10.17;43.37;94914.81;5031027;28;20063;-60
2022/04/19 03:06:27;;;;;;;2.17;1.67;;;;;;;10.08;42.59;94896.19;5031513;28;20058;-60
2022/04/19 03:08:53;;;;;;;2.20;1.92;;;;;;;10.22;43.15;94913.88;5031134;28;20100;-60
2022/04/19 03:11:18;;;;;;;2.30;1.90;;;;;;;10.22;42.78;94911.22;5030519;28;20093;-61
2022/04/19 03:13:44;;;;;;;2.47;1.65;;;;;;;9.68;43.17;94884.72;5031146;28;20049;-61
2022/04/19 03:16:13;;;;;;;2.03;1.60;;;;;;;9.62;43.76;94897.34;5031289;28;20029;-59
2022/04/19 03:18:41;;;;;;;2.75;1.80;;;;;;;9.80;43.57;94911.50;5031247;28;20030;-61
2022/04/19 03:21:08;;;;;;;2.05;1.70;;;;;;;9.56;43.30;94871.19;5030630;28;20032;-60
2022/04/19 03:29:01;;;;;;;2.50;1.58;;;;;;;10.12;43.23;94906.97;5030805;28;20048;-59
2022/04/19 03:31:26;;;;;;;1.42;1.33;;;;;;;10.21;43.14;94902.47;5030833;28;20462;-60
2022/04/19 03:33:52;;;;;;;1.70;1.60;;;;;;;10.21;42.13;94894.50;5030960;28;20032;-60
2022/04/19 03:36:21;;;;;;;3.60;1.50;;;;;;;10.30;41.76;94902.53;5030941;28;20034;-61
2022/04/19 03:38:46;;;;;;;2.22;1.77;;;;;;;9.98;42.03;94861.09;5030726;28;20033;-60
2022/04/19 03:41:12;;;;;;;2.33;1.88;;;;;;;10.31;42.16;94899.56;5030416;28;20034;-62
2022/04/19 03:43:38;;;;;;;1.65;1.52;;;;;;;10.28;42.02;94888.75;5031472;28;20018;-60
2022/04/19 03:46:04;;;;;;;2.00;1.60;;;;;;;10.44;41.65;94921.84;5035474;28;20068;-59
2022/04/19 03:48:29;;;;;;;1.92;1.73;;;;;;;10.49;42.09;94916.34;5034907;28;20061;-59
2022/04/19 03:50:55;;;;;;;1.67;1.50;;;;;;;10.25;41.83;94868.91;5034289;28;20484;-60
2022/04/19 03:53:20;;;;;;;3.17;1.70;;;;;;;10.49;41.38;94912.91;5034636;28;20022;-60
2022/04/19 03:55:45;;;;;;;1.95;1.70;;;;;;;10.48;42.09;94917.44;5034944;28;20032;-61
2022/04/19 03:58:11;;;;;;;1.88;1.77;;;;;;;10.21;42.55;94915.75;5034400;28;20061;-59
2022/04/19 04:00:36;;;;;;;3.47;1.67;;;;;;;10.34;42.35;94906.16;5034359;28;20026;-59
2022/04/19 04:03:02;;;;;;;2.40;1.83;;;;;;;10.32;42.16;94903.78;5034465;28;20516;-60
2022/04/19 04:05:28;;;;;;;2.28;1.83;;;;;;;10.44;41.46;94897.91;5034599;28;20108;-62
2022/04/19 04:07:56;;;;;;;4.15;1.73;;;;;;;10.39;41.78;94892.72;5034215;28;20048;-62
2022/04/19 04:10:22;;;;;;;2.25;1.80;;;;;;;10.54;42.38;94912.78;5034121;28;20037;-62
2022/04/19 04:12:47;;;;;;;4.93;1.83;;;;;;;10.50;42.12;94899.31;5033257;28;20018;-61
2022/04/19 04:15:12;;;;;;;1.88;1.50;;;;;;;10.52;41.51;94910.44;5034395;28;20030;-61
2022/04/19 04:17:38;;;;;;;3.00;1.80;;;;;;;10.31;42.19;94885.50;5034047;28;20029;-62
2022/04/19 04:20:04;;;;;;;1.88;1.73;;;;;;;10.40;41.97;94920.88;5034149;28;20029;-62
2022/04/19 04:22:30;;;;;;;1.70;1.60;;;;;;;10.12;41.74;94881.16;5034015;28;20048;-61
2022/04/19 04:24:55;;;;;;;3.40;1.40;;;;;;;10.28;41.86;94916.13;5034381;28;20053;-62
2022/04/19 04:27:20;;;;;;;2.00;1.70;;;;;;;10.04;42.49;94897.09;5033827;28;20486;-62
2022/04/19 04:29:46;;;;;;;3.58;1.63;;;;;;;9.88;42.79;94921.41;5033690;28;20058;-62
2022/04/19 04:32:11;;;;;;;2.10;1.50;;;;;;;9.82;43.19;94893.38;5031962;28;20083;-63
2022/04/19 04:34:37;;;;;;;3.63;1.92;;;;;;;9.58;42.87;94872.47;5033102;28;20087;-62
2022/04/19 04:37:02;;;;;;;2.08;1.88;;;;;;;9.58;43.09;94861.06;5033733;28;20029;-62
2022/04/19 04:39:28;;;;;;;1.50;1.40;;;;;;;9.57;43.31;94857.63;5033260;28;20040;-62
2022/04/19 04:41:53;;;;;;;1.67;1.58;;;;;;;9.96;42.91;94908.44;5032697;28;20034;-62
2022/04/19 04:44:18;;;;;;;2.83;1.70;;;;;;;9.89;43.12;94892.97;5033477;28;20018;-62
2022/04/19 04:49:37;;;;;;;1.90;1.38;;;;;;;9.90;44.59;94868.72;5031138;28;20036;-64
2022/04/19 04:52:07;;;;;;;1.98;1.60;;;;;;;10.35;43.58;94910.38;5031602;28;20574;-64
2022/04/19 04:54:34;;;;;;;1.92;1.40;;;;;;;10.37;43.44;94916.16;5033324;28;20053;-63
2022/04/19 04:57:00;;;;;;;2.22;1.58;;;;;;;10.50;41.92;94879.94;5033597;28;20355;-64
2022/04/19 04:59:25;;;;;;;3.45;1.90;;;;;;;10.89;41.66;94906.44;5032458;28;20033;-64
2022/04/19 05:01:51;;;;;;;3.90;1.60;;;;;;;11.02;41.54;94891.44;5029585;28;20389;-64
2022/04/19 05:04:16;;;;;;;2.10;1.65;;;;;;;11.16;40.88;94888.63;5030878;28;20030;-62
2022/04/19 05:06:41;;;;;;;4.13;1.70;;;;;;;11.34;40.82;94902.72;5032288;28;20048;-62
2022/04/19 05:09:07;;;;;;;1.95;1.70;;;;;;;11.51;41.14;94902.69;5032024;28;20087;-63
2022/04/19 05:11:32;;;;;;;2.10;1.52;;;;;;;11.35;40.61;94878.44;5030915;28;20021;-63
2022/04/19 05:13:57;;;;;;;2.72;1.48;;;;;;;11.07;40.08;94872.66;5032679;28;20025;-63
2022/04/19 05:16:23;;;;;;;2.75;1.90;;;;;;;11.24;40.71;94914.47;5032078;28;20068;-65
2022/04/19 05:18:49;;;;;;;2.72;2.13;;;;;;;10.65;41.77;94892.78;5032911;28;20032;-64
2022/04/19 05:21:14;;;;;;;4.95;1.95;;;;;;;9.78;44.09;94889.78;5029692;28;20533;-65
2022/04/19 05:23:39;;;;;;;2.17;1.70;;;;;;;9.16;45.59;94865.78;5030309;28;20103;-63
2022/04/19 05:26:05;;;;;;;6.57;1.92;;;;;;;9.64;44.82;94889.06;5032800;28;20057;-62
2022/04/19 05:28:30;;;;;;;2.67;2.03;;;;;;;9.76;44.70;94883.19;5030892;28;20040;-61
2022/04/19 05:30:56;;;;;;;2.30;1.90;;;;;;;10.40;44.02;94881.78;5029080;28;20104;-64
2022/04/19 05:33:21;;;;;;;4.72;2.10;;;;;;;10.87;42.95;94868.72;5012668;28;20029;-62
2022/04/19 05:35:47;;;;;;;4.03;1.73;;;;;;;10.65;42.81;94876.84;5016759;28;20033;-63
2022/04/19 05:38:12;;;;;;;2.13;1.77;;;;;;;10.33;43.09;94764.44;5028325;28;20029;-63
2022/04/19 05:40:41;;;;;;;7.43;2.42;;;;;;;11.14;42.81;94899.56;5031933;28;20059;-64
2022/04/19 05:43:06;;;;;;;3.20;2.33;;;;;;;11.44;42.05;94895.19;5032325;28;20029;-64
2022/04/19 05:45:32;;;;;;;2.97;2.08;;;;;;;10.85;43.28;94899.38;5030534;28;20029;-60
2022/04/19 05:47:58;;;;;;;7.35;3.33;;;;;;;10.39;42.80;94818.28;5032371;28;20040;-59
2022/04/19 05:50:23;;;;;;;9.80;3.42;;;;;;;10.50;43.36;94917.94;5028233;28;20478;-63
2022/04/19 05:52:48;;;;;;;7.78;2.95;;;;;;;9.93;44.97;94898.44;5031961;28;20029;-60
2022/04/19 05:55:14;;;;;;;9.35;2.83;;;;;;;10.85;43.71;94924.13;5032223;28;20025;-61
2022/04/19 05:57:39;;;;;;;5.28;2.25;;;;;;;9.94;45.20;94926.59;5031607;28;20026;-61
2022/04/19 06:00:05;;;;;;;3.40;1.92;;;;;;;10.06;45.69;94919.59;5030682;28;20036;-60
2022/04/19 06:05:14;;;;;;;2.22;2.03;;;;;;;10.49;44.07;94910.25;5031787;28;20139;-61
2022/04/19 06:07:45;;;;;;;3.78;2.35;;;;;;;10.72;45.06;94933.03;5029562;28;20116;-62
2022/04/19 06:10:10;;;;;;;5.85;2.30;;;;;;;10.56;44.11;94895.44;5026577;28;20029;-61
2022/04/19 06:12:36;;;;;;;6.88;2.00;;;;;;;10.89;44.10;94871.06;5029780;28;20029;-61
2022/04/19 06:15:01;;;;;;;4.00;2.10;;;;;;;11.30;42.55;94917.75;5031664;28;20497;-61
2022/04/19 06:17:32;;;;;;;6.25;2.65;;;;;;;11.81;41.92;94903.59;5030675;28;20034;-61
2022/04/19 06:19:58;;;;;;;5.53;2.55;;;;;;;11.33;43.06;94901.16;5031512;28;20029;-61
2022/04/19 06:22:23;;;;;;;3.60;2.45;;;;;;;11.05;43.88;94921.94;5029991;28;20032;-63
2022/04/19 06:24:48;;;;;;;6.15;2.25;;;;;;;11.88;42.19;94911.94;5030193;28;20025;-63
2022/04/19 06:27:14;;;;;;;3.28;2.10;;;;;;;11.78;41.81;94890.13;5031343;28;20021;-62
2022/04/19 06:29:39;;;;;;;3.17;2.38;;;;;;;11.97;41.38;94904.66;5031214;28;20041;-61
2022/04/19 06:32:05;;;;;;;7.88;2.35;;;;;;;10.98;42.88;94913.66;5030987;28;20049;-62
2022/04/19 06:34:30;;;;;;;4.72;2.10;;;;;;;11.79;40.89;94889.03;5031223;28;20029;-61
2022/04/19 06:36:55;;;;;;;5.57;2.20;;;;;;;11.11;41.54;94888.78;5031472;28;20390;-61
2022/04/19 06:39:21;;;;;;;5.15;2.22;;;;;;;11.89;40.42;94907.38;5031340;28;20026;-61
2022/04/19 06:41:46;;;;;;;2.88;2.33;;;;;;;12.03;39.97;94912.50;5030859;28;20112;-61
2022/04/19 06:44:12;;;;;;;4.15;2.40;;;;;;;12.15;40.44;94907.31;5030848;28;20025;-62
2022/04/19 06:46:37;;;;;;;4.80;2.50;;;;;;;11.91;39.70;94873.19;5043345;23;20132;-70
2022/04/19 06:49:06;;;;;;;3.65;2.30;;;;;;;12.37;39.39;94864.38;5031071;28;20032;-69
2022/04/19 06:51:32;;;;;;;3.28;2.85;;;;;;;12.11;39.38;94855.72;5030574;28;20470;-70
2022/04/19 06:53:58;;;;;;;2.97;2.20;;;;;;;11.47;40.10;94810.44;5029380;28;20040;-72
2022/04/19 06:56:23;;;;;;;3.42;2.85;;;;;;;11.99;38.74;94709.78;5030855;28;20025;-70
2022/04/19 06:58:49;;;;;;;4.93;2.40;;;;;;;12.57;38.56;94904.78;5030908;28;20030;-70
2022/04/19 07:01:15;;;;;;;6.15;2.40;;;;;;;12.49;38.58;94904.50;5030482;28;20096;-70
2022/04/19 07:03:40;;;;;;;4.13;2.38;;;;;;;12.12;38.82;94835.94;5030388;28;20112;-71
2022/04/19 07:06:06;;;;;;;4.68;2.67;;;;;;;11.86;38.67;94839.50;5030784;28;20064;-71
2022/04/19 07:08:32;;;;;;;4.50;2.53;;;;;;;11.88;39.60;94863.19;5030539;28;20053;-70
2022/04/19 07:10:58;;;;;;;3.95;2.38;;;;;;;11.88;40.44;94917.25;5030199;28;20418;-70
2022/04/19 07:13:24;;;;;;;7.15;2.38;;;;;;;12.13;39.22;94906.81;5030095;28;20112;-71
2022/04/19 07:15:50;;;;;;;4.70;2.40;;;;;;;12.13;39.59;94912.16;5030511;28;20104;-70
2022/04/19 07:18:17;;;;;;;8.73;2.65;;;;;;;12.46;39.61;94907.03;5029345;28;20025;-70
2022/04/19 07:28:55;;;;;;;5.57;2.95;;;;;;;13.30;36.99;94885.78;5030778;28;20163;-70
2022/04/19 07:31:20;;;;;;;3.92;3.00;;;;;;;13.50;36.87;94903.69;5029888;28;20733;-70
2022/04/19 07:33:46;;;;;;;3.40;3.08;;;;;;;13.64;36.54;94869.47;5030605;28;20033;-70
2022/04/19 07:36:12;;;;;;;3.25;2.80;;;;;;;13.78;37.30;94907.38;5030704;28;20457;-70
2022/04/19 07:38:37;;;;;;;11.35;3.17;;;;;;;13.79;36.81;94922.31;5031107;28;20668;-71
2022/04/19 07:41:04;;;;;;;9.35;2.80;;;;;;;15.00;35.18;94871.94;5030326;28;20030;-70
2022/04/19 07:43:30;;;;;;;3.97;3.15;;;;;;;13.23;36.53;94835.56;5030470;28;20028;-71
2022/04/19 07:45:55;;;;;;;6.85;3.05;;;;;;;13.04;38.50;94904.66;5030541;28;20068;-71
2022/04/19 07:48:21;;;;;;;5.53;2.88;;;;;;;13.40;37.46;94888.84;5030755;28;20363;-71
2022/04/19 07:50:46;;;;;;;6.43;3.70;;;;;;;14.28;36.04;94852.09;5030475;28;20115;-70
2022/04/19 07:53:11;;;;;;;6.40;2.83;;;;;;;14.18;36.21;94890.00;5030516;28;20123;-70
2022/04/19 07:55:37;;;;;;;5.90;3.08;;;;;;;15.19;34.55;94831.13;5030642;28;20032;-70
2022/04/19 07:58:03;;;;;;;5.55;3.35;;;;;;;13.70;35.86;94894.88;5030752;28;20029;-71
2022/04/19 08:00:30;;;;;;;3.53;2.92;;;;;;;14.07;35.16;94854.84;5030253;28;20066;-70
2022/04/19 08:02:56;;;;;;;7.30;3.00;;;;;;;13.66;36.51;94885.94;5030104;28;20057;-70
2022/04/19 08:05:22;;;;;;;4.18;3.20;;;;;;;14.17;36.21;94899.09;5030230;28;20491;-72
2022/04/19 08:07:49;;;;;;;6.18;3.47;;;;;;;13.99;35.41;94893.19;5028919;28;20121;-72
2022/04/19 08:10:15;;;;;;;6.07;3.92;;;;;;;13.76;36.27;94895.44;5029448;28;20017;-71
2022/04/19 08:12:40;;;;;;;4.68;3.42;;;;;;;13.93;35.26;94865.88;5028636;28;20075;-71
2022/04/19 08:15:06;;;;;;;3.75;3.40;;;;;;;13.14;36.52;94834.84;5028874;28;20335;-71
2022/04/19 08:17:32;;;;;;;5.85;3.35;;;;;;;13.50;35.63;94832.31;5030345;28;20029;-71
2022/04/19 08:19:58;;;;;;;5.60;3.55;;;;;;;13.32;36.05;94855.00;5030085;28;20037;-71
2022/04/19 08:22:24;;;;;;;4.70;4.15;;;;;;;13.91;35.06;94899.38;5029070;28;20089;-69
2022/04/19 08:24:49;;;;;;;6.63;3.65;;;;;;;13.72;35.06;94838.44;5030330;28;20477;-70
2022/04/19 08:27:16;;;;;;;4.28;3.75;;;;;;;14.01;34.58;94886.38;5030040;28;20108;-72
2022/04/19 08:29:43;;;;;;;5.78;4.05;;;;;;;13.74;35.03;94838.88;5030547;28;20517;-72
2022/04/19 08:32:08;;;;;;;5.55;3.47;;;;;;;13.06;35.31;94771.63;5033346;28;20025;-71
2022/04/19 08:34:33;;;;;;;5.50;3.95;;;;;;;14.46;34.22;94877.50;5032487;28;20028;-71
2022/04/19 08:36:59;;;;;;;4.93;4.03;;;;;;;14.46;34.90;94874.84;5033677;28;20108;-72
2022/04/19 08:39:24;;;;;;;7.68;4.20;;;;;;;14.55;34.54;94854.13;5033544;28;20029;-72
2022/04/19 08:41:49;;;;;;;4.88;4.20;;;;;;;14.92;33.94;94829.97;5033201;28;20029;-72
2022/04/19 08:44:15;;;;;;;7.75;3.75;;;;;;;13.39;34.28;94758.28;5033617;28;20029;-71
2022/04/19 08:46:42;;;;;;;5.13;4.20;;;;;;;13.30;34.88;94824.34;5033283;28;20025;-70
2022/04/19 08:49:09;;;;;;;4.10;3.75;;;;;;;14.11;34.85;94879.03;5033231;28;20051;-71
2022/04/19 08:51:35;;;;;;;4.90;4.35;;;;;;;14.22;33.96;94832.00;5033058;28;20029;-71
2022/04/19 08:59:31;;;;;;;5.70;4.00;;;;;;;14.80;32.92;94828.09;5013438;28;20044;-70
2022/04/19 09:01:58;;;;;;;4.55;4.15;;;;;;;14.75;33.79;94876.53;5028361;28;20033;-69
2022/04/19 09:04:25;;;;;;;5.10;4.40;;;;;;;15.10;33.76;94849.25;5013731;28;20470;-70
2022/04/19 09:06:59;;;;;;;5.50;4.28;;;;;;;15.26;32.78;94860.81;5029474;28;20034;-70
2022/04/19 09:09:27;;;;;;;7.75;4.43;;;;;;;15.71;32.35;94857.06;5031797;28;20075;-70
2022/04/19 09:12:04;;;;;;;5.07;4.57;;;;;;;15.77;30.48;94795.94;5031044;28;20057;-69
2022/04/19 09:14:29;;;;;;;5.28;4.70;;;;;;;15.20;32.43;94842.59;5032924;28;20723;-70
2022/04/19 09:17:05;;;;;;;5.28;4.78;;;;;;;16.07;30.33;94810.47;5033175;28;20021;-71
2022/04/19 09:19:31;;;;;;;5.57;5.07;;;;;;;15.70;31.08;94828.69;5031813;28;20034;-70
2022/04/19 09:21:58;;;;;;;6.53;4.05;;;;;;;15.90;30.88;94869.81;5032517;28;20033;-70
2022/04/19 09:24:25;;;;;;;5.57;5.03;;;;;;;15.00;32.73;94836.31;5032849;28;20386;-70
2022/04/19 09:26:51;;;;;;;5.30;4.80;;;;;;;16.87;31.11;94857.59;5031794;28;20119;-70
2022/04/19 09:29:24;;;;;;;10.38;5.05;;;;;;;15.88;31.67;94828.38;5031736;28;20109;-70
2022/04/19 09:32:01;;;;;;;6.68;5.32;;;;;;;16.29;30.97;94824.41;5032354;28;20151;-71
2022/04/19 09:34:29;;;;;;;5.05;4.55;;;;;;;15.19;33.57;94857.13;5031352;28;20013;-70
2022/04/19 09:37:14;;;;;;;5.70;4.70;;;;;;;15.34;32.59;94859.88;5032537;28;20025;-70
2022/04/19 09:39:42;;;;;;;5.93;5.32;;;;;;;15.31;33.02;94811.56;5032279;28;20045;-71
2022/04/19 09:42:15;;;;;;;5.93;5.43;;;;;;;16.08;32.39;94848.81;5031159;28;20462;-71
2022/04/19 09:44:49;;;;;;;6.22;5.28;;;;;;;16.85;30.85;94843.75;5032353;28;20507;-70
2022/04/19 09:47:14;;;;;;;7.68;5.65;;;;;;;16.33;31.13;94818.00;5032299;28;20037;-72
2022/04/19 09:49:48;;;;;;;5.47;4.82;;;;;;;17.29;29.59;94842.72;5032414;28;20029;-71
2022/04/19 09:52:34;;;;;;;5.97;5.40;;;;;;;16.38;30.71;94854.53;5031850;28;20032;-71
2022/04/19 09:55:05;;;;;;;6.32;5.05;;;;;;;16.49;30.93;94809.94;5032064;28;20504;-71
2022/04/19 09:57:32;;;;;;;6.25;5.65;;;;;;;17.14;29.93;94842.44;5032334;28;20355;-71
2022/04/19 09:59:59;;;;;;;6.32;4.82;;;;;;;17.88;28.40;94826.22;5032054;28;20568;-72
2022/04/19 10:08:10;;;;;;;9.75;5.38;;;;;;;17.65;27.77;94766.97;5032151;28;20540;-71
2022/04/19 10:10:37;;;;;;;6.53;5.93;;;;;;;18.69;27.10;94842.16;5031653;28;20420;-72
2022/04/19 10:13:03;;;;;;;6.05;5.43;;;;;;;20.03;26.24;94832.63;5030496;28;20026;-71
2022/04/19 10:15:31;;;;;;;6.97;6.03;;;;;;;18.74;26.52;94832.22;5031976;28;20045;-71
2022/04/19 10:17:57;;;;;;;7.47;6.00;;;;;;;19.72;25.80;94782.59;5031786;28;20477;-72
2022/04/19 10:20:34;;;;;;;6.50;5.90;;;;;;;17.81;28.16;94822.59;5030863;28;20025;-71
2022/04/19 10:23:02;;;;;;;7.78;5.80;;;;;;;18.95;27.12;94810.97;5011860;28;20038;-71
2022/04/19 10:25:44;;;;;;;7.40;5.38;;;;;;;18.59;26.80;94829.28;5011704;28;20033;-71
2022/04/19 10:28:15;;;;;;;6.53;5.93;;;;;;;17.91;28.01;94816.63;5010367;28;20114;-72
2022/04/19 10:30:52;;;;;;;6.33;5.80;;;;;;;17.03;29.24;94790.38;5011434;28;20030;-71
2022/04/19 10:33:39;;;;;;;7.05;6.00;;;;;;;19.11;26.78;94810.78;5022795;28;20287;-72
2022/04/19 10:36:10;;;;;;;6.22;5.63;;;;;;;19.19;26.97;94807.81;5030094;28;20025;-71
2022/04/19 10:38:36;;;;;;;6.25;5.68;;;;;;;19.08;26.19;94773.75;5031115;28;20065;-71
2022/04/19 10:41:03;;;;;;;8.82;6.07;;;;;;;17.83;28.09;94804.22;5029555;28;20057;-71
2022/04/19 10:43:29;;;;;;;6.28;5.68;;;;;;;16.41;29.93;94783.25;5029890;28;20115;-71
2022/04/19 10:46:14;;;;;;;6.35;5.75;;;;;;;16.70;29.97;94808.84;5031298;28;20033;-70
2022/04/19 10:49:18;;;;;;;6.30;5.80;;;;;;;18.41;27.87;94806.69;5030430;28;20073;-71
2022/04/19 10:51:43;;;;;;;7.13;5.45;;;;;;;17.95;28.20;94768.28;5029195;28;20477;-73
2022/04/19 10:54:08;;;;;;;6.78;6.10;;;;;;;17.07;29.43;94771.66;5030539;28;20051;-71
2022/04/19 10:57:12;;;;;;;6.38;5.43;;;;;;;17.59;28.91;94789.13;5029551;28;20056;-72
2022/04/19 10:59:38;;;;;;;7.05;6.25;;;;;;;17.06;29.47;94767.41;5030649;28;20036;-72
2022/04/19 11:02:35;;;;;;;5.85;5.35;;;;;;;17.37;29.46;94796.03;5030598;28;20064;-71
2022/04/19 11:05:01;;;;;;;6.20;5.60;;;;;;;17.50;29.16;94788.59;5030711;28;20117;-72
2022/04/19 11:07:41;;;;;;;7.32;5.43;;;;;;;18.97;27.47;94787.09;5029815;28;20100;-72
2022/04/19 11:10:06;;;;;;;7.43;6.43;;;;;;;17.38;28.79;94746.50;5029560;28;20473;-71
2022/04/19 11:13:01;;;;;;;5.93;5.43;;;;;;;18.89;27.35;94783.56;5030364;28;20040;-72
2022/04/19 11:15:39;;;;;;;6.30;5.80;;;;;;;18.15;27.94;94758.97;5029560;28;20049;-73
2022/04/19 11:18:24;;;;;;;6.45;5.47;;;;;;;18.70;27.25;94784.44;5030756;28;20025;-73
2022/04/19 11:20:52;;;;;;;5.60;5.10;;;;;;;18.65;27.03;94776.66;5030520;28;20436;-71
2022/04/19 11:23:22;;;;;;;6.45;5.85;;;;;;;18.33;27.59;94764.66;5029043;28;20029;-71
2022/04/19 11:25:49;;;;;;;7.22;5.30;;;;;;;18.23;27.58;94771.44;5030325;28;20028;-71
2022/04/19 11:28:20;;;;;;;6.38;5.50;;;;;;;17.71;28.45;94767.47;5028936;28;20029;-71
2022/04/19 11:30:55;;;;;;;5.82;5.43;;;;;;;18.50;27.42;94766.81;5030016;28;20057;-71
2022/04/19 11:33:25;;;;;;;6.05;5.53;;;;;;;16.72;29.72;94774.38;5029099;28;20033;-71
2022/04/19 11:35:59;;;;;;;6.00;5.40;;;;;;;17.20;28.88;94715.81;5030119;28;20064;-71
2022/04/19 11:38:24;;;;;;;5.55;5.00;;;;;;;17.99;27.82;94716.06;5030329;28;20037;-72
2022/04/19 11:49:05;;;;;;;5.97;5.30;;;;;;;16.51;30.01;94740.53;5030515;28;20048;-71
2022/04/19 11:51:35;;;;;;;6.13;5.63;;;;;;;17.25;29.16;94721.72;5028617;28;20029;-70
2022/04/19 11:54:00;;;;;;;6.43;5.82;;;;;;;16.46;30.41;94746.19;5030397;28;20099;-71
2022/04/19 11:56:25;;;;;;;5.72;5.22;;;;;;;15.96;30.68;94712.84;5029079;28;20081;-71
2022/04/19 11:58:52;;;;;;;5.82;5.25;;;;;;;16.27;30.51;94721.97;5028861;28;20060;-70
2022/04/19 12:01:17;;;;;;;5.53;5.03;;;;;;;16.30;29.82;94750.81;5028731;28;20025;-72
2022/04/19 12:03:43;;;;;;;5.53;5.10;;;;;;;17.15;29.04;94693.50;5029184;28;20048;-70
2022/04/19 12:06:14;;;;;;;6.85;4.50;;;;;;;19.12;26.84;94729.53;5033607;28;20497;-72
2022/04/19 12:08:44;;;;;;;5.70;4.65;;;;;;;18.70;27.46;94738.66;5034032;28;20041;-73
2022/04/19 12:11:16;;;;;;;5.57;5.05;;;;;;;17.58;28.75;94706.91;5033709;28;20021;-70
2022/04/19 12:13:52;;;;;;;7.53;5.07;;;;;;;17.03;28.50;94744.69;5032829;28;20025;-71
2022/04/19 12:16:39;;;;;;;7.95;5.05;;;;;;;18.37;26.98;94733.91;5034005;28;20025;-70
2022/04/19 12:19:10;;;;;;;7.07;4.88;;;;;;;18.34;27.81;94755.44;5033941;28;20084;-70